Flight Track Log - Related Links

Times and Time Zones

All times are in EDT time to prevent confusion due to time zone crossing. See the UAL4335 flight status page for this flight to view local times or setup timezone preferences in your user account.

Time Position Orientation Groundspeed Altitude Reporting Facility
EDT Latitude Longitude Course Direction KTS MPH feet Rate Location/Type
Sun 07:38:31 AM 42.9500 -71.4333 270° West 154 177 900  Level KA90
Sun 07:38:49 AM 42.9500 -71.4500 270° West 157 181 1,700 1,853 Climbing KA90
Sun 07:39:39 AM 42.9922 -71.4692 342° North 177 204 3,000 1,525 Climbing Boston Center
Sun 07:40:51 AM 43.0386 -71.5142 325° Northwest 195 224 4,800 2,000 Climbing Boston Center
Sun 07:41:00 AM 42.9333 -71.7293 270° West  Level FlightAware Approximate
Sun 07:41:51 AM 43.0664 -71.6017 294° West 209 241 7,400  Level Boston Center
Sun 07:42:00 AM 42.9357 -71.8283 285° West  Level FlightAware Approximate
Sun 07:42:51 AM 43.0525 -71.7042 260° West 238 274 10,100  Level Boston Center
Sun 07:43:00 AM 42.9500 -71.9251 270° West  Level FlightAware Approximate
Sun 07:43:51 AM 43.0406 -71.7894 259° West 252 290 11,500  Level Boston Center
Sun 07:44:51 AM 43.0244 -71.9119 260° West 290 334 12,800 1,450 Climbing Boston Center
Sun 07:45:51 AM 43.0103 -72.0142 259° West 302 348 14,400 1,550 Climbing Boston Center
Sun 07:46:51 AM 42.9919 -72.1419 259° West 309 356 15,900 1,650 Climbing Boston Center
Sun 07:47:51 AM 42.9775 -72.2414 259° West 309 356 17,700 1,300 Climbing Boston Center
Sun 07:48:51 AM 42.9631 -72.3550 260° West 309 356 18,500 1,050 Climbing Boston Center
Sun 07:49:51 AM 42.9506 -72.4769 262° West 309 356 19,800 1,250 Climbing Boston Center
Sun 07:50:51 AM 42.9358 -72.5903 260° West 309 356 21,000 1,000 Climbing Boston Center
Sun 07:51:51 AM 42.9108 -72.7008 253° West 309 356 21,800 500 Climbing Boston Center
Sun 07:52:51 AM 42.8936 -72.8256 259° West 321 369 22,000 100 Climbing Boston Center
Sun 07:53:51 AM 42.8744 -72.9528 258° West 337 388 22,000  Level Boston Center
Sun 07:54:51 AM 42.8614 -73.0689 261° West 343 395 22,000 -600 Level Boston Center
Sun 07:55:51 AM 42.8397 -73.1989 257° West 353 406 20,800 -1,500 Descending Boston Center
Sun 07:56:51 AM 42.8200 -73.3289 258° West 345 397 19,000 -1,300 Descending Boston Center
Sun 07:57:51 AM 42.8025 -73.4417 258° West 334 384 18,200 -1,200 Descending Boston Center
Sun 07:58:51 AM 42.7825 -73.5744 258° West 334 384 16,600 -1,100 Descending Boston Center
Sun 07:59:51 AM 42.7644 -73.6900 258° West 334 384 16,000 -300 Descending Boston Center
Sun 08:00:51 AM 42.7278 -73.8108 248° West 341 392 16,000  Level Boston Center
Sun 08:01:51 AM 42.6186 -73.8650 200° South 321 369 16,000  Level Boston Center
Sun 08:02:51 AM 42.5306 -73.9022 197° South 341 392 16,000  Level Boston Center
Sun 08:03:51 AM 42.4258 -73.9478 198° South 366 421 16,000  Level Boston Center
Sun 08:04:51 AM 42.3378 -73.9878 199° South 371 427 16,000 -350 Level Boston Center
Sun 08:05:51 AM 42.2328 -74.0356 199° South 365 420 15,300 -850 Descending Boston Center
Sun 08:06:51 AM 42.1386 -74.0753 197° South 365 420 14,300 -1,000 Descending Boston Center
Sun 08:07:51 AM 42.0442 -74.1175 198° South 365 420 13,300 -1,000 Descending Boston Center
Sun 08:08:51 AM 41.9475 -74.1622 199° South 365 420 12,300 -1,000 Descending Boston Center
Sun 08:09:51 AM 41.8531 -74.2017 197° South 365 420 11,300 -600 Descending Boston Center
Sun 08:10:51 AM 41.7608 -74.2436 199° South 365 420 11,100 -150 Descending Boston Center
Sun 08:11:51 AM 41.6664 -74.2825 197° South 365 420 11,000 -400 Descending Boston Center
Sun 08:12:51 AM 41.5803 -74.3189 198° South 345 397 10,300 -1,293 Descending Boston Center
Sun 08:14:52 AM 41.4333 -74.3833 198° South 270 311 7,100 -1,094 Descending New York TRACON
Sun 08:15:52 AM 41.3667 -74.4167 201° Southwest 273 314 7,000 -50 Descending New York TRACON
Sun 08:16:52 AM 41.2833 -74.4500 197° South 271 312 7,000  Level New York TRACON
Sun 08:17:52 AM 41.2167 -74.4667 191° South 271 312 7,000  Level New York TRACON
Sun 08:18:46 AM 41.1500 -74.5000 201° Southwest 273 314 7,000  Level New York TRACON
Sun 08:19:46 AM 41.0833 -74.5333 201° Southwest 270 311 7,000 -200 Level New York TRACON
Sun 08:20:46 AM 41.0000 -74.5333 180° South 277 319 6,600 -421 Descending New York TRACON
Sun 08:21:40 AM 40.9333 -74.5167 169° South 275 316 6,200 -444 Descending New York TRACON
Sun 08:22:34 AM 40.8667 -74.5167 180° South 275 316 5,800 -579 Descending New York TRACON
Sun 08:23:34 AM 40.8000 -74.5000 169° South 264 304 5,100 -421 Descending New York TRACON
Sun 08:24:28 AM 40.7333 -74.5000 180° South 272 313 5,000 -53 Descending New York TRACON
Sun 08:25:28 AM 40.6500 -74.4833 171° South 273 314 5,000 -150 Level New York TRACON
Sun 08:26:28 AM 40.5833 -74.4500 159° South 277 319 4,700 -500 Descending New York TRACON
Sun 08:27:28 AM 40.5333 -74.3833 135° Southeast 261 300 4,000 -550 Descending New York TRACON
Sun 08:28:28 AM 40.5000 -74.3333 131° Southeast 205 236 3,600 -450 Descending New York TRACON
Sun 08:29:28 AM 40.5333 -74.2667 57° Northeast 176 203 3,100 -400 Descending New York TRACON
Sun 08:30:28 AM 40.5667 -74.2500 21° North 169 194 2,800 -632 Descending New York TRACON
Sun 08:31:22 AM 40.6000 -74.2167 37° Northeast 167 192 1,900 -895 Descending New York TRACON
Sun 08:32:22 AM 40.6500 -74.2000 14° North 128 147 1,100 -800 Descending New York TRACON

Login

Don't have an account? Register now (free) for customized features, flight alerts, and more!